This is the latest recevied weather packets stored in our database for station/object 9W2TBJ-4. If no packets are shown the sender has not sent any weather packets the latest 10 day(s).
| Time | Temp. | Humidity | Pressure | Rain* | Wind** | Luminosity | Snow |
|---|---|---|---|---|---|---|---|
| 1777236899 | 31.67° C | 62% | 1008.6 hPa | - | - | - | - |
| 1777235699 | 31.11° C | 64% | 1008.9 hPa | - | - | - | - |
| 1777234499 | 31.11° C | 64% | 1009.1 hPa | - | - | - | - |
| 1777233299 | 31.67° C | 62% | 1008.8 hPa | - | - | - | - |
| 1777232099 | 31.67° C | 62% | 1008.9 hPa | - | - | - | - |
| 1777230899 | 31.67° C | 61% | 1008.9 hPa | - | - | - | - |
| 1777229699 | 31.11° C | 64% | 1009.1 hPa | - | - | - | - |
| 1777228499 | 31.67° C | 63% | 1009.5 hPa | - | - | - | - |
| 1777227299 | 31.67° C | 62% | 1009.6 hPa | - | - | - | - |
| 1777226099 | 32.22° C | 62% | 1009.9 hPa | - | - | - | - |
| 1777224899 | 32.22° C | 62% | 1009.9 hPa | - | - | - | - |
| 1777223699 | 31.67° C | 63% | 1010.1 hPa | - | - | - | - |
| 1777222499 | 32.22° C | 62% | 1010.3 hPa | - | - | - | - |
| 1777221299 | 32.22° C | 62% | 1010.6 hPa | - | - | - | - |
| 1777220099 | 32.22° C | 61% | 1010.7 hPa | - | - | - | - |
| 1777218898 | 32.22° C | 62% | 1011.1 hPa | - | - | - | - |
| 1777217698 | 31.67° C | 63% | 1011.2 hPa | - | - | - | - |
| 1777216498 | 32.78° C | 60% | 1011.2 hPa | - | - | - | - |
| 1777215298 | 32.78° C | 61% | 1011.1 hPa | - | - | - | - |
| 1777214099 | 32.22° C | 62% | 1011 hPa | - | - | - | - |
| 1777212899 | 32.78° C | 61% | 1011.1 hPa | - | - | - | - |
| 1777211699 | 32.78° C | 60% | 1010.9 hPa | - | - | - | - |
| 1777210499 | 32.78° C | 60% | 1010.9 hPa | - | - | - | - |
| 1777209299 | 32.22° C | 61% | 1010.5 hPa | - | - | - | - |
| 1777208099 | 32.78° C | 61% | 1010.6 hPa | - | - | - | - |
* Rain since midnight (hover to see other rain measurements)
** Current wind speed in m/s (hover to see current wind gust speed)